»·PEaware :: N978AP KSMX-KBFL

N978AP :: KSMX-KBFL

FLIGHT INFORMATION

Flight Status: Arrived
Operator: Privately registered:
United States
More flights under this callsign
Pilot: Sam D. (11311)
Aircraft: CESSNA 172 SKYHAWK
(C172)
More flights by this aircraft type
Origin: KSMX Santa Maria Pub/Capt Hancock
United States
Destination: KBFL Meadows
United States
More flights between these airports :: More routes between these airports
Route:
File this flight plan on PilotEdge
Remarks: CAt-5 Rating
Altitude:
(Current/Filed)
7,500ft
Speed:
(Current/Filed)
90kts
Departed: 04-Jun-17 08:37 PM
Arrived: 04-Jun-17 09:24 PM
Distance/Time
Traveled:
76nm/0:47
Distance/Time
To Go:
Arrived

Flight Plot

Page will automatically refresh every two minutes.


Map Options




Map Legend


Flown Route
Filed Route
Departure Airport
Arrival Airport
Navaid (VOR, NDB)
Fix

Horizontal Profiles

Position Reports

Time Latitude Longitude Heading Altitude Ground
Speed
04-Jun-17 20:30 34.896806 -120.445909 273 264ft 0kts
04-Jun-17 20:31 34.896806 -120.445909 273 264ft 0kts
04-Jun-17 20:32 34.896814 -120.446112 274 264ft 5kts
04-Jun-17 20:33 34.895774 -120.446866 135 264ft 13kts
04-Jun-17 20:34 34.893658 -120.444945 185 264ft 11kts
04-Jun-17 20:35 34.893406 -120.444955 181 264ft 0kts
04-Jun-17 20:36 34.893406 -120.444955 181 264ft 0kts
04-Jun-17 20:37 34.893406 -120.444955 181 264ft 0kts
04-Jun-17 20:38 34.893393 -120.444955 180 264ft 1kts
04-Jun-17 20:39 34.895611 -120.449144 315 264ft 64kts
04-Jun-17 20:40 34.912166 -120.456789 38 1149ft 86kts
04-Jun-17 20:41 34.909884 -120.429754 93 2172ft 83kts
04-Jun-17 20:42 34.911628 -120.401682 73 3072ft 85kts
04-Jun-17 20:43 34.921688 -120.374301 51 3881ft 91kts
04-Jun-17 20:44 34.936058 -120.349519 45 4710ft 90kts
04-Jun-17 20:45 34.949261 -120.323271 56 5492ft 92kts
04-Jun-17 20:46 34.960803 -120.294818 58 6213ft 95kts
04-Jun-17 20:47 34.972974 -120.266424 51 6923ft 93kts
04-Jun-17 20:48 34.986392 -120.238736 53 7457ft 101kts
04-Jun-17 20:49 35.002013 -120.206564 58 7603ft 121kts
04-Jun-17 20:50 35.016798 -120.169725 62 7553ft 122kts
04-Jun-17 20:51 35.030486 -120.132119 62 7507ft 120kts
04-Jun-17 20:52 35.044033 -120.095765 63 7521ft 118kts
04-Jun-17 20:53 35.055954 -120.058178 66 7489ft 120kts
04-Jun-17 20:54 35.067185 -120.020340 64 7498ft 118kts
04-Jun-17 20:55 35.080851 -119.984073 58 7515ft 115kts
04-Jun-17 20:56 35.094379 -119.950639 61 7492ft 119kts
04-Jun-17 20:57 35.106940 -119.916685 62 7495ft 117kts
04-Jun-17 20:58 35.119572 -119.879879 65 7497ft 119kts
04-Jun-17 20:59 35.132670 -119.842870 61 7474ft 119kts
04-Jun-17 21:00 35.146720 -119.807565 59 7526ft 117kts
04-Jun-17 21:01 35.161717 -119.772489 57 7527ft 118kts
04-Jun-17 21:02 35.176870 -119.736481 58 7467ft 119kts
04-Jun-17 21:03 35.192593 -119.700836 56 7397ft 118kts
04-Jun-17 21:04 35.206924 -119.666135 62 7470ft 114kts
04-Jun-17 21:05 35.218869 -119.629075 64 7416ft 119kts
04-Jun-17 21:06 35.231014 -119.591383 64 7412ft 116kts
04-Jun-17 21:07 35.243789 -119.555712 59 7467ft 114kts
04-Jun-17 21:08 35.258315 -119.521168 62 7489ft 115kts
04-Jun-17 21:09 35.271368 -119.484975 61 7487ft 117kts
04-Jun-17 21:10 35.285594 -119.449391 58 7470ft 117kts
04-Jun-17 21:11 35.299591 -119.413693 58 7163ft 116kts
04-Jun-17 21:12 35.313083 -119.378025 64 6454ft 116kts
04-Jun-17 21:13 35.323734 -119.342422 65 5682ft 115kts
04-Jun-17 21:14 35.341047 -119.311170 41 4798ft 114kts
04-Jun-17 21:15 35.362670 -119.282764 44 3697ft 116kts
04-Jun-17 21:16 35.381598 -119.251795 49 2600ft 109kts
04-Jun-17 21:17 35.389913 -119.220999 98 1837ft 97kts
04-Jun-17 21:18 35.390449 -119.191098 77 1469ft 82kts
04-Jun-17 21:19 35.397058 -119.165319 62 1511ft 79kts
04-Jun-17 21:20 35.406238 -119.139386 61 1548ft 86kts
04-Jun-17 21:21 35.416472 -119.113187 63 1603ft 88kts
04-Jun-17 21:22 35.425725 -119.087341 61 1410ft 74kts
04-Jun-17 21:23 35.430314 -119.063237 127 1388ft 91kts
04-Jun-17 21:24 35.419662 -119.044734 35 1047ft 71kts
04-Jun-17 21:25 35.433129 -119.055329 318 499ft 57kts
04-Jun-17 21:26 35.436330 -119.057531 76 496ft 6kts
04-Jun-17 21:27 35.436980 -119.055000 43 508ft 9kts
04-Jun-17 21:28 35.437003 -119.054672 220 510ft 0kts
04-Jun-17 21:29 35.437003 -119.054672 220 510ft 0kts

Navigation Log

Ident Type
1. KSMX Airport
2. KBFL Airport